Time;durP1;ratioP1;P1;durP2;ratioP2;P2;SDS_P1;SDS_P2;PMS_P1;PMS_P2;Temp;Humidity;BMP_temperature;BMP_pressure;BME280_temperature;BME280_humidity;BME280_pressure;Samples;Min_cycle;Max_cycle;Signal;HPM_P1;HPM_P2
2021/09/17 00:01:10;;;;;;;8.23;2.77;;;15.70;98.30;;;;;;5168601;23;20438;-81
2021/09/17 00:03:13;;;;;;;3.20;2.30;;;15.70;98.30;;;;;;5176780;23;20423;-82
2021/09/17 00:05:17;;;;;;;3.67;2.10;;;15.70;98.30;;;;;;5176755;23;20566;-81
2021/09/17 00:07:20;;;;;;;2.73;2.03;;;15.80;98.30;;;;;;5176160;23;20439;-81
2021/09/17 00:09:23;;;;;;;2.17;1.97;;;15.80;98.30;;;;;;5176531;23;20444;-80
2021/09/17 00:11:26;;;;;;;6.27;1.90;;;15.70;98.30;;;;;;5169520;23;20522;-80
2021/09/17 00:13:29;;;;;;;3.10;2.03;;;15.70;98.30;;;;;;5169898;23;20751;-80
2021/09/17 00:15:32;;;;;;;4.10;1.67;;;15.70;98.30;;;;;;5176900;23;20501;-81
2021/09/17 00:17:36;;;;;;;3.27;1.97;;;15.70;98.30;;;;;;5176604;23;20435;-81
2021/09/17 00:19:40;;;;;;;4.13;1.90;;;15.70;98.30;;;;;;5167775;23;20430;-80
2021/09/17 00:21:43;;;;;;;5.10;2.10;;;15.70;98.30;;;;;;5169776;23;20502;-80
2021/09/17 00:23:46;;;;;;;3.60;2.17;;;15.70;98.30;;;;;;5178608;23;20415;-80
2021/09/17 00:25:49;;;;;;;2.53;1.90;;;15.70;98.30;;;;;;5174553;23;20448;-81
2021/09/17 00:27:52;;;;;;;3.90;1.87;;;15.70;98.30;;;;;;5183364;23;20413;-80
2021/09/17 00:29:55;;;;;;;2.53;1.97;;;15.70;98.30;;;;;;5177676;23;20470;-80
2021/09/17 00:31:58;;;;;;;3.30;1.93;;;15.60;98.30;;;;;;5184688;23;20435;-80
2021/09/17 00:34:03;;;;;;;4.40;1.97;;;15.60;98.30;;;;;;5178932;23;20459;-80
2021/09/17 00:36:06;;;;;;;3.33;2.07;;;15.60;98.30;;;;;;5187472;23;20446;-82
2021/09/17 00:38:09;;;;;;;2.30;2.07;;;15.70;98.30;;;;;;5176825;23;20960;-81
2021/09/17 00:40:12;;;;;;;3.87;1.90;;;15.70;98.30;;;;;;5179517;23;20503;-81
2021/09/17 00:42:15;;;;;;;3.73;2.17;;;15.70;98.30;;;;;;5169892;23;20459;-81
2021/09/17 00:44:23;;;;;;;2.43;1.90;;;15.70;98.30;;;;;;5178628;23;20428;-80
2021/09/17 00:46:26;;;;;;;4.40;2.10;;;15.80;98.30;;;;;;5168866;23;20447;-80
2021/09/17 00:48:29;;;;;;;2.60;2.10;;;15.70;98.30;;;;;;5168471;23;20470;-81
2021/09/17 00:50:34;;;;;;;2.87;2.13;;;15.70;98.30;;;;;;5177458;23;20430;-81
2021/09/17 00:52:37;;;;;;;4.00;2.10;;;15.70;98.30;;;;;;5168069;23;20504;-80
2021/09/17 00:54:41;;;;;;;4.23;2.40;;;15.80;98.30;;;;;;5168406;23;20482;-80
2021/09/17 00:56:45;;;;;;;4.07;1.93;;;15.70;98.30;;;;;;5167603;23;20451;-81
2021/09/17 00:58:48;;;;;;;4.23;1.93;;;15.70;98.30;;;;;;5176452;23;20428;-82
2021/09/17 01:00:51;;;;;;;5.00;2.20;;;15.70;98.30;;;;;;5177129;23;20430;-81
2021/09/17 01:02:57;;;;;;;4.97;2.03;;;15.70;98.30;;;;;;5169555;23;20428;-80
2021/09/17 01:05:01;;;;;;;3.97;2.00;;;15.80;98.30;;;;;;5177897;23;20432;-80
2021/09/17 01:07:06;;;;;;;3.33;1.87;;;15.80;98.30;;;;;;5176799;23;20920;-81
2021/09/17 01:09:09;;;;;;;3.60;2.13;;;15.80;98.30;;;;;;5167735;23;20554;-81
2021/09/17 01:11:14;;;;;;;4.07;1.80;;;15.80;98.30;;;;;;5176172;23;20527;-80
2021/09/17 01:13:18;;;;;;;3.80;2.10;;;15.80;98.30;;;;;;5168131;23;20945;-80
2021/09/17 01:15:21;;;;;;;3.20;1.63;;;15.80;98.30;;;;;;5168187;23;20452;-81
2021/09/17 01:17:31;;;;;;;2.43;1.40;;;15.80;98.30;;;;;;5168036;23;20446;-81
2021/09/17 01:19:36;;;;;;;2.53;1.90;;;15.70;98.30;;;;;;5167597;23;20423;-80
2021/09/17 01:21:40;;;;;;;5.03;2.10;;;15.80;98.30;;;;;;5175933;23;20420;-80
2021/09/17 01:23:43;;;;;;;3.23;2.03;;;15.80;98.30;;;;;;5168399;23;20510;-80
2021/09/17 01:25:46;;;;;;;3.30;2.30;;;15.80;98.30;;;;;;5168182;23;20446;-81
2021/09/17 01:27:51;;;;;;;2.70;1.87;;;15.70;98.30;;;;;;5167328;23;20454;-81
2021/09/17 01:29:54;;;;;;;6.40;2.10;;;15.70;98.30;;;;;;5176358;23;20475;-81
2021/09/17 01:31:57;;;;;;;2.40;1.97;;;15.70;98.30;;;;;;5167946;23;20981;-81
2021/09/17 01:34:08;;;;;;;4.13;2.00;;;15.70;98.30;;;;;;5177340;23;20900;-81
2021/09/17 01:36:12;;;;;;;11.50;2.40;;;15.70;98.30;;;;;;5167945;23;20454;-82
2021/09/17 01:38:16;;;;;;;4.70;2.10;;;15.80;98.30;;;;;;5175570;23;20455;-82
2021/09/17 01:40:19;;;;;;;2.77;1.90;;;15.70;98.30;;;;;;5168204;23;20447;-82
2021/09/17 01:42:22;;;;;;;4.93;2.23;;;15.80;98.30;;;;;;5168668;23;20428;-81
2021/09/17 01:44:25;;;;;;;2.30;1.80;;;15.70;98.30;;;;;;5168956;23;20428;-81
2021/09/17 01:46:28;;;;;;;2.77;2.10;;;15.70;98.30;;;;;;5175988;23;20439;-81
2021/09/17 01:48:31;;;;;;;3.50;1.80;;;15.70;98.30;;;;;;5167506;23;20731;-81
2021/09/17 01:50:34;;;;;;;2.90;1.80;;;15.80;98.30;;;;;;5176508;23;20440;-81
2021/09/17 01:52:38;;;;;;;2.27;1.47;;;15.80;98.30;;;;;;5177416;23;20495;-80
2021/09/17 01:54:43;;;;;;;5.10;1.90;;;15.70;98.30;;;;;;5168551;23;20430;-80
2021/09/17 01:56:46;;;;;;;6.80;1.77;;;15.70;98.30;;;;;;5168580;23;20447;-80
2021/09/17 01:58:49;;;;;;;4.23;1.80;;;15.70;98.30;;;;;;5178021;23;20435;-81
2021/09/17 02:00:52;;;;;;;3.00;1.77;;;15.70;98.30;;;;;;5169166;23;20460;-81
2021/09/17 02:02:56;;;;;;;3.90;1.90;;;15.70;98.30;;;;;;5177630;23;20420;-81
2021/09/17 02:05:00;;;;;;;2.17;1.70;;;15.60;98.30;;;;;;5176467;23;20466;-81
2021/09/17 02:07:02;;;;;;;5.27;1.70;;;15.70;98.30;;;;;;5176307;23;20764;-81
2021/09/17 02:09:06;;;;;;;3.30;1.73;;;15.60;98.30;;;;;;5167382;23;20439;-81
2021/09/17 02:11:10;;;;;;;2.23;1.57;;;15.70;98.30;;;;;;5176328;23;20443;-81
2021/09/17 02:13:17;;;;;;;3.60;1.53;;;15.70;98.30;;;;;;5176227;23;20453;-80
2021/09/17 02:15:20;;;;;;;13.73;2.60;;;15.60;98.30;;;;;;5176082;23;20442;-81
2021/09/17 02:17:24;;;;;;;1.60;1.50;;;15.70;98.30;;;;;;5167321;23;20964;-80
2021/09/17 02:19:27;;;;;;;3.23;1.70;;;15.70;98.30;;;;;;5167469;23;20424;-81
2021/09/17 02:21:30;;;;;;;2.50;1.60;;;15.70;98.30;;;;;;5168434;23;20431;-81
2021/09/17 02:23:33;;;;;;;5.50;1.60;;;15.70;98.30;;;;;;5168087;23;20499;-80
2021/09/17 02:25:36;;;;;;;2.63;1.53;;;15.70;98.30;;;;;;5175632;23;20450;-81
2021/09/17 02:27:41;;;;;;;2.57;1.53;;;15.70;98.30;;;;;;5167836;23;20442;-81
2021/09/17 02:29:44;;;;;;;2.37;1.40;;;15.70;98.30;;;;;;5176218;23;20448;-80
2021/09/17 02:31:47;;;;;;;4.80;1.90;;;15.70;98.30;;;;;;5168287;23;20446;-80
2021/09/17 02:33:50;;;;;;;2.80;1.70;;;15.70;98.30;;;;;;5175623;23;20451;-81
2021/09/17 02:35:53;;;;;;;2.00;1.60;;;15.70;98.30;;;;;;5175646;23;20534;-81
2021/09/17 02:37:56;;;;;;;1.80;1.40;;;15.60;98.30;;;;;;5166813;23;20828;-82
2021/09/17 02:39:58;;;;;;;2.20;1.50;;;15.60;98.30;;;;;;5176582;23;20419;-81
2021/09/17 02:42:02;;;;;;;7.33;1.87;;;15.60;98.30;;;;;;5169024;23;20742;-80
2021/09/17 02:44:06;;;;;;;2.30;1.70;;;15.60;98.30;;;;;;5167974;23;20439;-80
2021/09/17 02:46:09;;;;;;;2.87;1.50;;;15.60;98.30;;;;;;5176879;23;20530;-81
2021/09/17 02:48:12;;;;;;;3.80;1.60;;;15.60;98.30;;;;;;5176217;23;20506;-81
2021/09/17 02:50:15;;;;;;;3.03;1.60;;;15.60;98.30;;;;;;5176641;23;20435;-81
2021/09/17 02:52:18;;;;;;;2.40;1.70;;;15.60;98.30;;;;;;5176713;23;20422;-81
2021/09/17 02:54:21;;;;;;;3.53;1.70;;;15.60;98.30;;;;;;5176674;23;20512;-81
2021/09/17 02:56:24;;;;;;;2.13;1.67;;;15.60;98.30;;;;;;5166702;23;20448;-81
2021/09/17 02:58:27;;;;;;;2.03;1.57;;;15.60;98.30;;;;;;5167016;23;20921;-80
2021/09/17 03:00:32;;;;;;;3.20;1.73;;;15.60;98.30;;;;;;5175513;23;20479;-80
2021/09/17 03:02:35;;;;;;;3.67;1.63;;;15.60;98.30;;;;;;5167615;23;20424;-80
2021/09/17 03:04:39;;;;;;;3.47;1.70;;;15.50;98.30;;;;;;5175942;23;20416;-80
2021/09/17 03:06:42;;;;;;;3.20;1.60;;;15.50;98.30;;;;;;5174635;23;20434;-81
2021/09/17 03:08:45;;;;;;;3.67;1.70;;;15.60;98.30;;;;;;5175207;23;20416;-80
2021/09/17 03:10:48;;;;;;;5.90;1.50;;;15.50;98.30;;;;;;5167363;23;20941;-80
2021/09/17 03:12:51;;;;;;;4.37;2.00;;;15.50;98.30;;;;;;5175463;23;20431;-80
2021/09/17 03:14:54;;;;;;;1.80;1.30;;;15.50;98.30;;;;;;5175692;23;20416;-80
2021/09/17 03:16:58;;;;;;;2.33;1.30;;;15.50;98.30;;;;;;5174451;23;20442;-81
2021/09/17 03:19:01;;;;;;;3.90;1.90;;;15.50;98.30;;;;;;5165911;23;20514;-82
2021/09/17 03:21:04;;;;;;;5.50;1.63;;;15.50;98.30;;;;;;5175431;23;20426;-80
2021/09/17 03:23:07;;;;;;;1.70;1.37;;;15.50;98.30;;;;;;5167827;23;20507;-81
2021/09/17 03:25:10;;;;;;;3.00;1.80;;;15.50;98.30;;;;;;5167831;23;20455;-81
2021/09/17 03:27:13;;;;;;;3.77;1.60;;;15.50;98.30;;;;;;5167002;23;20423;-81
2021/09/17 03:29:16;;;;;;;2.23;1.60;;;15.50;98.30;;;;;;5174938;23;20424;-81
2021/09/17 03:31:19;;;;;;;2.87;1.70;;;15.50;98.30;;;;;;5166279;23;20586;-81
2021/09/17 03:33:24;;;;;;;1.60;1.40;;;15.50;98.30;;;;;;5175445;23;20519;-81
2021/09/17 03:35:26;;;;;;;1.80;1.30;;;15.40;98.30;;;;;;5166615;23;20447;-81
2021/09/17 03:37:29;;;;;;;1.97;1.47;;;15.40;98.30;;;;;;5174523;23;20432;-81
2021/09/17 03:39:32;;;;;;;2.17;1.37;;;15.40;98.30;;;;;;5165953;23;20430;-80
2021/09/17 03:41:35;;;;;;;1.87;1.30;;;15.40;98.30;;;;;;5175525;23;20419;-80
2021/09/17 03:43:38;;;;;;;1.40;1.27;;;15.40;98.30;;;;;;5175852;23;20458;-80
2021/09/17 03:45:41;;;;;;;1.60;1.33;;;15.30;98.30;;;;;;5175123;23;20463;-80
2021/09/17 03:47:45;;;;;;;2.47;1.67;;;15.40;98.30;;;;;;5174791;23;20817;-80
2021/09/17 03:49:53;;;;;;;2.40;1.30;;;15.40;98.30;;;;;;5174647;23;20403;-80
2021/09/17 03:51:57;;;;;;;4.53;1.50;;;15.30;98.30;;;;;;5175583;23;20542;-81
2021/09/17 03:54:00;;;;;;;2.83;1.63;;;15.30;98.30;;;;;;5175763;23;20427;-80
2021/09/17 03:56:04;;;;;;;1.83;1.40;;;15.30;98.30;;;;;;5175454;23;20522;-80
2021/09/17 03:58:07;;;;;;;1.30;1.20;;;15.20;98.30;;;;;;5175300;23;20475;-80
2021/09/17 04:00:14;;;;;;;1.50;1.30;;;15.30;98.30;;;;;;5167092;23;20428;-80
2021/09/17 04:02:17;;;;;;;2.03;1.37;;;15.30;98.30;;;;;;5175056;23;20424;-81
2021/09/17 04:04:20;;;;;;;1.83;1.53;;;15.30;98.30;;;;;;5175939;23;20896;-81
2021/09/17 04:06:24;;;;;;;1.40;1.20;;;15.30;98.30;;;;;;5166759;23;20448;-80
2021/09/17 04:08:27;;;;;;;1.60;1.40;;;15.30;98.30;;;;;;5176320;23;20419;-81
2021/09/17 04:10:30;;;;;;;1.67;1.40;;;15.30;98.30;;;;;;5177948;23;20892;-80
2021/09/17 04:12:33;;;;;;;1.30;1.20;;;15.30;98.30;;;;;;5168802;23;20455;-80
2021/09/17 04:14:37;;;;;;;1.80;1.20;;;15.30;98.30;;;;;;5177907;23;20878;-81
2021/09/17 05:04:31;;;;;;;1.30;1.20;;;15.00;98.30;;;;;;5167828;23;20493;-84
2021/09/17 05:09:41;;;;;;;1.50;1.20;;;15.00;98.30;;;;;;5159938;22;20408;-81
2021/09/17 05:11:44;;;;;;;1.50;1.30;;;15.00;98.30;;;;;;5142662;23;20436;-81
2021/09/17 05:13:47;;;;;;;1.80;1.40;;;15.00;98.30;;;;;;5142634;23;20429;-83
2021/09/17 05:15:50;;;;;;;1.50;1.30;;;15.10;98.30;;;;;;5142813;23;20417;-83
2021/09/17 05:17:54;;;;;;;3.77;1.37;;;15.00;98.30;;;;;;5151028;23;20431;-81
2021/09/17 05:19:57;;;;;;;2.03;1.30;;;15.00;98.30;;;;;;5150898;23;20461;-80
2021/09/17 05:22:00;;;;;;;1.40;1.30;;;15.10;98.30;;;;;;5151228;23;20417;-83
2021/09/17 05:24:03;;;;;;;1.60;1.43;;;15.10;98.30;;;;;;5143055;23;20906;-81
2021/09/17 05:26:06;;;;;;;3.90;1.67;;;15.00;98.30;;;;;;5150534;23;20424;-84
2021/09/17 05:28:12;;;;;;;1.50;1.40;;;15.10;98.30;;;;;;5142797;23;20464;-80
2021/09/17 05:30:15;;;;;;;1.73;1.60;;;15.20;98.30;;;;;;5151260;23;20463;-82
2021/09/17 05:32:18;;;;;;;1.80;1.50;;;15.20;98.30;;;;;;5151002;23;20981;-81
2021/09/17 05:34:22;;;;;;;2.70;1.73;;;15.20;98.30;;;;;;5150604;23;20425;-81
2021/09/17 05:36:25;;;;;;;1.60;1.50;;;15.20;98.30;;;;;;5150780;23;20425;-82
2021/09/17 05:38:30;;;;;;;1.57;1.40;;;15.20;98.30;;;;;;5151381;23;20424;-84
2021/09/17 05:40:34;;;;;;;2.70;1.50;;;15.30;98.30;;;;;;5150917;23;20860;-81
2021/09/17 05:42:37;;;;;;;1.70;1.30;;;15.30;98.30;;;;;;5150669;23;20504;-81
2021/09/17 05:44:44;;;;;;;1.77;1.40;;;15.20;98.30;;;;;;5151198;23;20524;-81
2021/09/17 05:46:47;;;;;;;2.03;1.47;;;15.20;98.30;;;;;;5150829;23;20412;-80
2021/09/17 05:48:50;;;;;;;1.70;1.60;;;15.20;98.30;;;;;;5151010;23;20452;-86
2021/09/17 05:50:54;;;;;;;2.20;1.57;;;15.10;98.30;;;;;;5150775;23;20447;-81
2021/09/17 05:52:57;;;;;;;2.70;1.43;;;15.20;98.30;;;;;;5150596;23;20447;-83
2021/09/17 05:55:00;;;;;;;3.60;1.57;;;15.20;98.30;;;;;;5150356;23;20433;-84
2021/09/17 05:57:03;;;;;;;1.70;1.40;;;15.10;98.30;;;;;;5150270;23;20520;-81
2021/09/17 05:59:06;;;;;;;4.13;2.40;;;15.10;98.30;;;;;;5150408;23;20420;-81
2021/09/17 06:01:09;;;;;;;11.10;7.93;;;15.20;98.30;;;;;;5150791;23;20452;-81
2021/09/17 06:03:13;;;;;;;13.53;10.20;;;15.20;98.30;;;;;;5149867;23;20413;-81
2021/09/17 06:05:17;;;;;;;4.33;3.90;;;15.20;98.30;;;;;;5152601;23;20429;-79
2021/09/17 06:07:21;;;;;;;3.60;2.60;;;15.30;98.30;;;;;;5150359;23;20467;-82
2021/09/17 06:09:24;;;;;;;5.00;3.83;;;15.20;98.30;;;;;;5150128;23;20424;-82
2021/09/17 06:11:27;;;;;;;4.70;2.63;;;15.20;98.30;;;;;;5150813;23;20456;-81
2021/09/17 06:13:30;;;;;;;4.17;3.00;;;15.20;98.30;;;;;;5150765;23;20444;-82
2021/09/17 06:15:33;;;;;;;2.37;1.90;;;15.20;98.30;;;;;;5150382;23;20504;-81
2021/09/17 06:17:37;;;;;;;2.80;2.10;;;15.20;98.30;;;;;;5150698;23;20429;-81
2021/09/17 06:19:41;;;;;;;3.80;2.10;;;15.20;98.30;;;;;;5150348;23;20508;-82
2021/09/17 06:21:44;;;;;;;4.63;4.10;;;15.10;98.30;;;;;;5150809;23;20424;-81
2021/09/17 06:23:48;;;;;;;9.40;6.10;;;15.20;98.30;;;;;;5150719;23;20428;-84
2021/09/17 06:25:51;;;;;;;10.30;6.10;;;15.10;98.30;;;;;;5143058;23;20429;-82
2021/09/17 06:27:54;;;;;;;3.53;2.70;;;15.10;98.30;;;;;;5150529;23;20425;-80
2021/09/17 06:29:57;;;;;;;1.70;1.60;;;15.10;98.30;;;;;;5150842;23;20455;-81
2021/09/17 06:32:00;;;;;;;2.60;2.10;;;15.10;98.30;;;;;;5150301;23;20440;-81
2021/09/17 06:34:03;;;;;;;3.00;2.47;;;15.00;98.30;;;;;;5150763;23;21052;-82
2021/09/17 06:36:12;;;;;;;2.73;2.20;;;15.10;98.30;;;;;;5155912;23;20448;-82
2021/09/17 06:38:15;;;;;;;3.47;2.67;;;15.20;98.30;;;;;;5154575;23;20448;-86
2021/09/17 06:40:22;;;;;;;3.03;1.90;;;15.30;98.30;;;;;;5155363;23;20444;-85
2021/09/17 06:42:25;;;;;;;3.90;2.80;;;15.50;98.30;;;;;;5154550;23;20420;-81
2021/09/17 06:44:28;;;;;;;2.03;1.77;;;15.50;98.30;;;;;;5156888;23;20429;-81
2021/09/17 06:46:36;;;;;;;2.10;1.73;;;15.60;98.30;;;;;;5158814;23;20432;-83
2021/09/17 06:48:40;;;;;;;2.20;1.83;;;15.60;98.30;;;;;;5156595;23;20424;-80
2021/09/17 06:50:43;;;;;;;1.57;1.47;;;15.60;98.30;;;;;;5155486;23;20955;-81
2021/09/17 06:52:50;;;;;;;2.07;1.60;;;15.70;98.30;;;;;;5153258;23;20448;-80
2021/09/17 06:54:56;;;;;;;3.50;2.13;;;15.70;98.30;;;;;;5151520;23;20500;-80
2021/09/17 06:57:00;;;;;;;3.83;1.60;;;15.60;98.30;;;;;;5151899;23;20411;-80
2021/09/17 06:59:03;;;;;;;1.87;1.70;;;15.70;98.30;;;;;;5151820;23;20503;-80
2021/09/17 07:01:06;;;;;;;2.17;1.83;;;15.70;98.30;;;;;;5152105;23;20957;-80
2021/09/17 07:03:10;;;;;;;1.83;1.50;;;15.70;98.30;;;;;;5151454;23;20475;-80
2021/09/17 07:05:14;;;;;;;1.50;1.40;;;15.80;98.30;;;;;;5152330;23;20427;-80
2021/09/17 07:07:19;;;;;;;1.83;1.63;;;15.80;98.30;;;;;;5154783;23;20424;-80
2021/09/17 07:09:22;;;;;;;1.60;1.50;;;15.80;98.30;;;;;;5151020;23;20435;-82
2021/09/17 07:11:27;;;;;;;2.67;1.67;;;15.90;98.30;;;;;;5150995;23;20443;-81
2021/09/17 07:13:31;;;;;;;2.70;1.70;;;16.00;98.30;;;;;;5151461;23;20444;-80
2021/09/17 07:15:35;;;;;;;3.13;2.50;;;16.10;98.30;;;;;;5143248;23;20428;-80
2021/09/17 07:17:38;;;;;;;8.23;6.00;;;16.20;98.30;;;;;;5150843;23;20448;-80
2021/09/17 07:19:41;;;;;;;15.50;11.17;;;16.40;98.30;;;;;;5151010;23;20459;-82
2021/09/17 07:21:50;;;;;;;5.27;4.00;;;16.50;98.30;;;;;;5152183;23;20885;-81
2021/09/17 07:23:53;;;;;;;2.23;1.90;;;16.50;98.30;;;;;;5150800;23;20480;-81
2021/09/17 07:25:56;;;;;;;2.97;2.17;;;16.60;98.30;;;;;;5150865;23;20435;-82
2021/09/17 07:27:59;;;;;;;2.40;1.90;;;16.60;98.30;;;;;;5151287;23;20425;-81
2021/09/17 07:30:04;;;;;;;2.20;1.90;;;16.70;98.30;;;;;;5151522;23;20445;-80
2021/09/17 07:32:08;;;;;;;3.00;2.60;;;16.70;98.30;;;;;;5151520;23;20448;-81
2021/09/17 07:34:11;;;;;;;2.43;2.00;;;16.70;98.30;;;;;;5150426;23;20481;-81
2021/09/17 07:36:14;;;;;;;4.23;3.20;;;16.90;98.30;;;;;;5142767;23;20467;-81
2021/09/17 07:38:17;;;;;;;3.37;2.37;;;17.00;98.30;;;;;;5142611;23;20425;-81
2021/09/17 07:40:20;;;;;;;2.77;2.27;;;17.10;98.30;;;;;;5142498;23;20983;-81
2021/09/17 07:42:23;;;;;;;2.27;1.87;;;17.20;98.30;;;;;;5150455;23;20424;-81
2021/09/17 07:44:26;;;;;;;3.00;2.60;;;17.20;98.30;;;;;;5152072;23;20794;-81
2021/09/17 07:46:31;;;;;;;4.80;2.23;;;17.30;98.30;;;;;;5152439;23;20417;-81
2021/09/17 07:48:34;;;;;;;1.93;1.73;;;17.40;98.30;;;;;;5152209;23;20911;-80
2021/09/17 07:50:39;;;;;;;5.70;4.80;;;17.50;98.30;;;;;;5152309;23;20476;-81
2021/09/17 07:52:42;;;;;;;4.80;4.20;;;17.70;98.30;;;;;;5152467;23;20799;-81
2021/09/17 07:54:45;;;;;;;4.87;2.80;;;17.70;98.30;;;;;;5152396;23;20420;-80
2021/09/17 07:56:48;;;;;;;2.60;1.90;;;17.60;98.30;;;;;;5152008;23;20424;-80
2021/09/17 07:58:51;;;;;;;2.73;1.70;;;17.80;98.30;;;;;;5143917;23;20511;-86
2021/09/17 08:00:54;;;;;;;2.23;1.83;;;17.80;98.30;;;;;;5143670;23;20475;-81
2021/09/17 08:02:58;;;;;;;13.87;10.40;;;17.80;98.30;;;;;;5152677;23;20463;-85
2021/09/17 08:05:01;;;;;;;32.13;23.20;;;17.70;98.30;;;;;;5152834;23;20452;-83
2021/09/17 08:07:05;;;;;;;14.10;7.93;;;17.80;98.30;;;;;;5153127;23;20521;-81
2021/09/17 08:09:08;;;;;;;2.80;2.20;;;17.90;98.30;;;;;;5153130;23;20495;-83
2021/09/17 08:11:11;;;;;;;2.63;1.60;;;17.90;98.30;;;;;;5145329;23;20822;-83
2021/09/17 08:13:14;;;;;;;1.80;1.60;;;17.90;98.30;;;;;;5155394;23;20471;-81
2021/09/17 08:15:16;;;;;;;1.30;1.20;;;17.80;98.30;;;;;;5153325;23;20479;-82
2021/09/17 08:17:19;;;;;;;1.57;1.30;;;17.70;98.30;;;;;;5145446;23;20428;-82
2021/09/17 08:19:24;;;;;;;1.53;1.40;;;17.90;98.30;;;;;;5144671;23;20439;-83
2021/09/17 08:21:27;;;;;;;1.70;1.50;;;17.80;98.30;;;;;;5144030;23;20452;-80
2021/09/17 08:23:30;;;;;;;1.93;1.57;;;17.90;98.30;;;;;;5144470;23;20425;-81
2021/09/17 08:25:33;;;;;;;1.87;1.70;;;18.00;98.30;;;;;;5152090;23;20429;-81
2021/09/17 08:27:37;;;;;;;1.53;1.43;;;18.00;98.30;;;;;;5152336;23;20421;-81
2021/09/17 08:29:40;;;;;;;1.60;1.50;;;18.00;98.30;;;;;;5152059;23;20947;-81
2021/09/17 08:31:44;;;;;;;1.50;1.40;;;18.00;98.30;;;;;;5152295;23;20460;-81
2021/09/17 08:33:47;;;;;;;2.20;1.40;;;18.00;98.30;;;;;;5143860;23;20445;-81
2021/09/17 08:35:52;;;;;;;3.10;1.70;;;18.00;98.30;;;;;;5143948;23;20424;-81
2021/09/17 08:37:54;;;;;;;2.17;1.43;;;18.00;98.30;;;;;;5143586;23;20459;-81
2021/09/17 08:39:57;;;;;;;2.70;2.10;;;18.10;98.30;;;;;;5151640;23;20518;-81
2021/09/17 08:42:00;;;;;;;2.20;2.00;;;18.20;98.30;;;;;;5143510;23;20460;-84
2021/09/17 08:44:03;;;;;;;1.60;1.40;;;18.30;98.30;;;;;;5152150;23;20413;-81
2021/09/17 08:46:06;;;;;;;1.40;1.30;;;18.30;98.30;;;;;;5143962;23;20433;-82
2021/09/17 08:48:12;;;;;;;1.60;1.40;;;18.30;98.30;;;;;;5151909;23;20428;-81
2021/09/17 08:50:14;;;;;;;1.50;1.20;;;18.20;98.30;;;;;;5152225;23;20444;-81
2021/09/17 08:52:19;;;;;;;1.83;1.47;;;18.20;98.30;;;;;;5143904;23;20448;-84
2021/09/17 08:54:22;;;;;;;2.53;1.30;;;18.40;98.30;;;;;;5151791;23;20495;-82
2021/09/17 08:56:25;;;;;;;1.60;1.40;;;18.60;98.30;;;;;;5143868;23;21076;-81
2021/09/17 08:58:28;;;;;;;2.73;2.20;;;18.70;98.30;;;;;;5151421;23;20432;-82
2021/09/17 09:00:39;;;;;;;2.60;2.30;;;18.70;98.30;;;;;;5152775;23;20455;-84
2021/09/17 09:02:46;;;;;;;2.93;2.63;;;18.60;98.30;;;;;;5144514;23;20488;-83
2021/09/17 09:04:57;;;;;;;3.70;3.23;;;18.60;98.30;;;;;;5152845;23;20404;-82
2021/09/17 09:07:05;;;;;;;1.60;1.50;;;18.60;98.30;;;;;;5152228;23;20425;-85
2021/09/17 09:09:16;;;;;;;1.40;1.23;;;18.60;98.30;;;;;;5144484;23;20490;-82
2021/09/17 09:11:20;;;;;;;1.90;1.60;;;18.50;98.30;;;;;;5145054;23;20511;-82
2021/09/17 09:13:23;;;;;;;1.90;1.40;;;18.20;98.30;;;;;;5158170;23;20425;-82
2021/09/17 09:15:30;;;;;;;2.37;1.30;;;18.20;98.30;;;;;;5147680;23;20428;-82
2021/09/17 09:17:35;;;;;;;1.60;1.30;;;18.30;98.30;;;;;;5153226;23;20417;-82
2021/09/17 09:19:38;;;;;;;1.73;1.43;;;18.30;98.30;;;;;;5152572;23;20408;-83
2021/09/17 09:21:41;;;;;;;1.50;1.17;;;18.30;98.30;;;;;;5144025;23;20432;-85
2021/09/17 09:23:44;;;;;;;2.00;1.40;;;18.20;98.30;;;;;;5143112;23;20479;-82
2021/09/17 09:26:04;;;;;;;2.03;1.70;;;18.40;98.30;;;;;;5151046;23;20433;-83
2021/09/17 09:28:14;;;;;;;1.80;1.50;;;18.40;98.30;;;;;;5140230;23;20508;-83
2021/09/17 09:30:29;;;;;;;1.70;1.43;;;18.60;98.30;;;;;;5150513;23;20799;-84
2021/09/17 09:32:34;;;;;;;1.67;1.57;;;18.80;98.30;;;;;;5150602;23;20407;-83
2021/09/17 09:34:54;;;;;;;2.10;1.60;;;18.80;98.30;;;;;;5150254;23;20429;-84
2021/09/17 09:37:06;;;;;;;3.50;2.90;;;18.70;98.30;;;;;;5140233;23;20443;-84
2021/09/17 09:39:09;;;;;;;2.07;1.77;;;18.60;98.30;;;;;;5150417;23;20443;-83
2021/09/17 09:41:16;;;;;;;1.50;1.40;;;18.50;98.30;;;;;;5150046;23;20451;-84
2021/09/17 09:43:28;;;;;;;1.80;1.43;;;18.40;98.30;;;;;;5141914;23;20416;-83
2021/09/17 09:45:32;;;;;;;1.60;1.50;;;18.40;98.30;;;;;;5150590;23;20991;-84
2021/09/17 09:47:37;;;;;;;2.77;1.50;;;18.40;98.30;;;;;;5150104;23;20444;-84
2021/09/17 09:49:47;;;;;;;1.20;1.10;;;18.60;98.30;;;;;;5142077;23;20427;-82
2021/09/17 09:51:57;;;;;;;1.90;1.30;;;18.70;98.30;;;;;;5150460;23;20859;-83
2021/09/17 09:54:03;;;;;;;1.80;1.30;;;18.70;98.30;;;;;;5150483;23;20423;-83
2021/09/17 09:56:06;;;;;;;1.40;1.30;;;18.80;98.30;;;;;;5150932;23;20401;-84
2021/09/17 09:58:12;;;;;;;2.63;2.33;;;18.80;98.30;;;;;;5150503;23;20420;-84
2021/09/17 10:00:17;;;;;;;2.63;2.00;;;18.70;98.30;;;;;;5142195;23;20495;-83
2021/09/17 10:02:23;;;;;;;3.40;2.53;;;18.60;98.30;;;;;;5150667;23;20424;-84
2021/09/17 10:04:29;;;;;;;1.73;1.63;;;18.40;98.30;;;;;;5149846;23;20417;-83
2021/09/17 10:06:35;;;;;;;1.77;1.67;;;18.10;98.30;;;;;;5149780;23;20429;-83
2021/09/17 10:08:39;;;;;;;1.73;1.60;;;18.00;98.30;;;;;;5149907;23;20416;-84
2021/09/17 10:10:44;;;;;;;2.07;1.30;;;17.90;98.30;;;;;;5149853;23;20457;-83
2021/09/17 10:12:48;;;;;;;2.07;1.50;;;17.90;98.30;;;;;;5142221;23;20436;-83
2021/09/17 10:14:57;;;;;;;2.13;1.30;;;17.80;98.30;;;;;;5141175;23;20801;-82
2021/09/17 10:17:07;;;;;;;1.30;1.20;;;17.80;98.30;;;;;;5150257;23;20928;-83
2021/09/17 10:19:10;;;;;;;1.57;1.30;;;17.70;98.30;;;;;;5150321;23;20451;-84
2021/09/17 10:21:14;;;;;;;2.63;1.60;;;17.70;98.30;;;;;;5142329;23;20449;-83
2021/09/17 10:23:27;;;;;;;2.33;1.60;;;17.70;98.30;;;;;;5161708;23;20428;-83
2021/09/17 10:25:30;;;;;;;1.50;1.20;;;17.60;98.30;;;;;;5142497;23;20491;-84
2021/09/17 10:27:33;;;;;;;2.47;1.50;;;17.60;98.30;;;;;;5149924;23;20463;-83
2021/09/17 10:29:38;;;;;;;2.03;1.80;;;17.50;98.30;;;;;;5141808;23;20444;-83
2021/09/17 10:31:44;;;;;;;1.40;1.30;;;17.60;98.30;;;;;;5141793;23;20490;-83
2021/09/17 10:33:47;;;;;;;1.60;1.43;;;17.70;98.30;;;;;;5150110;23;20479;-84
2021/09/17 10:35:50;;;;;;;2.00;1.50;;;17.60;98.30;;;;;;5150128;23;20444;-83
2021/09/17 10:38:02;;;;;;;2.07;1.40;;;17.60;98.30;;;;;;5141508;23;20435;-84
2021/09/17 10:40:08;;;;;;;2.70;2.30;;;17.60;98.30;;;;;;5141483;23;20563;-84
2021/09/17 10:42:13;;;;;;;1.70;1.43;;;17.50;98.30;;;;;;5150064;23;20425;-83
2021/09/17 10:44:16;;;;;;;1.60;1.20;;;17.50;98.30;;;;;;5150014;23;20893;-83
2021/09/17 10:46:33;;;;;;;2.77;1.40;;;17.40;98.30;;;;;;5141644;23;20431;-83
2021/09/17 10:48:58;;;;;;;1.83;1.30;;;17.50;98.30;;;;;;5149907;23;20425;-83
2021/09/17 10:51:03;;;;;;;1.30;1.17;;;17.40;98.30;;;;;;5150257;23;20486;-84
2021/09/17 10:53:06;;;;;;;2.80;1.80;;;17.40;98.30;;;;;;5150185;23;21192;-83
2021/09/17 10:55:10;;;;;;;1.60;1.40;;;17.40;98.30;;;;;;5150031;23;20801;-83
2021/09/17 10:57:13;;;;;;;4.70;1.60;;;17.40;98.30;;;;;;5149450;23;20508;-83
2021/09/17 10:59:21;;;;;;;1.90;1.67;;;17.50;98.30;;;;;;5141485;23;20876;-83
2021/09/17 11:01:23;;;;;;;1.60;1.20;;;17.70;98.30;;;;;;5150254;23;20452;-84
2021/09/17 11:04:02;;;;;;;1.40;1.30;;;17.70;98.30;;;;;;5150150;23;20914;-83
2021/09/17 11:06:26;;;;;;;1.30;1.20;;;17.70;98.30;;;;;;5142184;23;20421;-84
2021/09/17 11:08:45;;;;;;;1.80;1.40;;;17.60;98.30;;;;;;5149456;23;20432;-84
2021/09/17 11:13:06;;;;;;;1.53;1.30;;;18.00;98.30;;;;;;5145160;22;20508;-84
2021/09/17 11:15:11;;;;;;;1.50;1.30;;;18.20;98.30;;;;;;5175547;23;20534;-84
2021/09/17 11:17:14;;;;;;;13.63;8.10;;;18.50;98.30;;;;;;5175834;23;20450;-84
2021/09/17 11:19:20;;;;;;;84.50;65.83;;;18.70;98.30;;;;;;5175316;23;20788;-84
2021/09/17 11:21:23;;;;;;;7.13;5.63;;;19.10;98.30;;;;;;5175832;23;20440;-85
2021/09/17 11:23:37;;;;;;;2.43;2.20;;;19.20;98.30;;;;;;5176282;23;20426;-85
2021/09/17 11:25:41;;;;;;;2.80;1.70;;;19.10;98.30;;;;;;5167635;23;20412;-85
2021/09/17 11:27:44;;;;;;;1.57;1.40;;;18.90;98.30;;;;;;5176079;23;20424;-84
2021/09/17 11:29:49;;;;;;;1.80;1.40;;;18.70;98.30;;;;;;5175689;23;20424;-84
2021/09/17 11:31:55;;;;;;;1.60;1.50;;;18.40;98.30;;;;;;5176221;23;20414;-84
2021/09/17 11:33:59;;;;;;;1.97;1.77;;;18.30;98.30;;;;;;5175729;23;20518;-85
2021/09/17 11:36:03;;;;;;;2.17;1.40;;;18.20;98.30;;;;;;5176301;23;20956;-85
2021/09/17 11:38:06;;;;;;;1.90;1.43;;;18.00;98.30;;;;;;5175480;23;20430;-84
2021/09/17 11:40:10;;;;;;;2.33;1.30;;;17.90;98.30;;;;;;5175192;23;20497;-85